createdAt,value
2018-12-07T00:02:24.469Z,24.40
2018-12-07T00:04:52.904Z,24.40
2018-12-07T00:07:21.263Z,24.40
2018-12-07T00:09:49.732Z,24.40
2018-12-07T00:12:18.143Z,24.40
2018-12-07T00:14:46.719Z,24.40
2018-12-07T00:17:15.311Z,24.40
2018-12-07T00:19:47.920Z,24.40
2018-12-07T00:22:14.093Z,24.30
2018-12-07T00:24:42.610Z,24.40
2018-12-07T00:27:10.971Z,24.30
2018-12-07T00:29:39.442Z,24.40
2018-12-07T00:32:07.818Z,24.40
2018-12-07T00:34:36.409Z,24.40
2018-12-07T00:37:04.772Z,24.50
2018-12-07T00:39:33.275Z,24.50
2018-12-07T00:42:01.629Z,24.50
2018-12-07T00:44:30.019Z,24.50
2018-12-07T00:46:58.464Z,24.50
2018-12-07T00:49:28.007Z,24.50
2018-12-07T00:51:56.705Z,24.50
2018-12-07T00:54:25.080Z,24.40
2018-12-07T00:56:53.595Z,24.40
2018-12-07T00:59:21.960Z,24.40
2018-12-07T01:01:50.618Z,24.40
2018-12-07T01:04:19.001Z,24.40
2018-12-07T01:06:47.375Z,24.50
2018-12-07T01:09:15.858Z,24.50
2018-12-07T01:11:44.223Z,24.50
2018-12-07T01:14:12.610Z,24.50
2018-12-07T01:16:40.992Z,24.50
2018-12-07T01:19:09.383Z,24.50
2018-12-07T01:21:37.756Z,24.50
2018-12-07T01:24:06.128Z,24.50
2018-12-07T01:26:34.515Z,24.50
2018-12-07T01:29:03.096Z,24.40
2018-12-07T01:31:31.468Z,24.50
2018-12-07T01:33:59.850Z,24.50
2018-12-07T01:36:28.558Z,24.50
2018-12-07T01:38:57.016Z,24.50
2018-12-07T01:41:25.388Z,24.60
2018-12-07T01:43:53.868Z,24.60
2018-12-07T01:46:22.252Z,24.60
2018-12-07T01:48:50.774Z,24.60
2018-12-07T01:51:19.307Z,24.60
2018-12-07T01:53:47.794Z,24.60
2018-12-07T01:56:16.160Z,24.60
2018-12-07T01:58:44.542Z,24.50
2018-12-07T02:01:12.926Z,24.50
2018-12-07T02:03:41.310Z,24.50
2018-12-07T02:06:09.782Z,24.50
2018-12-07T02:08:38.170Z,24.50
2018-12-07T02:11:06.745Z,24.50
2018-12-07T02:13:35.231Z,24.60
2018-12-07T02:16:03.602Z,24.60
2018-12-07T02:18:32.092Z,24.70
2018-12-07T02:21:00.576Z,24.70
2018-12-07T02:23:28.972Z,24.70
2018-12-07T02:25:57.906Z,24.70
2018-12-07T02:28:26.266Z,24.60
2018-12-07T02:30:54.912Z,24.60
2018-12-07T02:33:23.315Z,24.60
2018-12-07T02:35:51.757Z,24.60
2018-12-07T02:38:20.121Z,24.60
2018-12-07T02:40:48.560Z,24.50
2018-12-07T02:43:17.038Z,24.60
2018-12-07T02:45:45.551Z,24.60
2018-12-07T02:48:13.954Z,24.60
2018-12-07T02:50:42.324Z,24.70
2018-12-07T02:53:10.702Z,24.70
2018-12-07T02:55:39.083Z,24.70
2018-12-07T02:58:07.473Z,24.70
2018-12-07T03:00:35.846Z,24.70
2018-12-07T03:03:04.346Z,24.70
2018-12-07T03:05:32.710Z,24.70
2018-12-07T03:08:01.187Z,24.70
2018-12-07T03:10:29.669Z,24.70
2018-12-07T03:12:58.036Z,24.70
2018-12-07T03:15:26.429Z,24.60
2018-12-07T03:17:54.818Z,24.60
2018-12-07T03:20:23.187Z,24.70
2018-12-07T03:22:51.558Z,24.70
2018-12-07T03:25:19.921Z,24.70
2018-12-07T03:27:48.299Z,24.70
2018-12-07T03:30:16.671Z,24.70
2018-12-07T03:32:45.079Z,24.80
2018-12-07T03:35:13.471Z,24.80
2018-12-07T03:37:41.839Z,24.80
2018-12-07T03:40:10.302Z,24.80
2018-12-07T03:42:38.893Z,24.80
2018-12-07T03:45:07.265Z,24.70
2018-12-07T03:47:35.623Z,24.70
2018-12-07T03:50:04.861Z,24.70
2018-12-07T03:52:33.341Z,24.70
2018-12-07T03:55:01.915Z,24.70
2018-12-07T03:57:30.889Z,24.70
2018-12-07T03:59:59.412Z,24.80
2018-12-07T04:02:27.868Z,24.80
2018-12-07T04:04:56.245Z,24.80
2018-12-07T04:07:24.743Z,24.80
2018-12-07T04:09:53.187Z,24.80
2018-12-07T04:12:21.564Z,24.80
2018-12-07T04:14:50.072Z,24.70
2018-12-07T04:17:18.452Z,24.70
2018-12-07T04:19:46.833Z,24.70
2018-12-07T04:22:15.194Z,24.70
2018-12-07T04:24:43.577Z,24.60
2018-12-07T04:27:12.836Z,24.60
2018-12-07T04:29:41.379Z,24.50
2018-12-07T04:32:09.744Z,24.40
2018-12-07T04:34:38.324Z,24.40
2018-12-07T04:37:07.010Z,24.40
2018-12-07T04:39:35.506Z,24.40
2018-12-07T04:42:04.198Z,24.40
2018-12-07T04:44:32.672Z,24.50
2018-12-07T04:47:01.160Z,24.60
2018-12-07T04:49:29.552Z,24.70
2018-12-07T04:51:58.108Z,24.70
2018-12-07T04:54:26.482Z,24.80
2018-12-07T04:56:54.859Z,24.80
2018-12-07T04:59:23.353Z,24.80
2018-12-07T05:01:51.738Z,24.80
2018-12-07T05:04:20.115Z,24.80
2018-12-07T05:06:48.609Z,24.80
2018-12-07T05:09:17.194Z,24.80
2018-12-07T05:11:45.554Z,24.80
2018-12-07T05:14:13.932Z,24.70
2018-12-07T05:16:42.421Z,24.70
2018-12-07T05:19:10.802Z,24.70
2018-12-07T05:21:39.276Z,24.70
2018-12-07T05:24:07.871Z,24.70
2018-12-07T05:26:36.240Z,24.60
2018-12-07T05:29:04.622Z,24.60
2018-12-07T05:31:33.193Z,24.50
2018-12-07T05:34:01.671Z,24.40
2018-12-07T05:36:30.271Z,24.40
2018-12-07T05:38:58.981Z,24.40
2018-12-07T05:41:27.534Z,24.40
2018-12-07T05:43:56.828Z,24.40
2018-12-07T05:46:25.431Z,24.50
2018-12-07T05:48:53.940Z,24.60
2018-12-07T05:51:22.660Z,24.70
2018-12-07T05:53:51.984Z,24.10
2018-12-07T05:56:21.680Z,23.40
2018-12-07T05:58:50.500Z,22.90
2018-12-07T06:01:19.171Z,22.50
2018-12-07T06:03:47.759Z,22.30
2018-12-07T06:06:16.133Z,22.20
2018-12-07T06:08:44.507Z,22.00
2018-12-07T06:11:13.160Z,21.90
2018-12-07T06:13:41.687Z,21.80
2018-12-07T06:16:10.165Z,21.60
2018-12-07T06:18:38.649Z,21.50
2018-12-07T06:21:07.214Z,22.40
2018-12-07T06:23:35.596Z,23.00
2018-12-07T06:26:04.066Z,23.30
2018-12-07T06:28:32.738Z,23.40
2018-12-07T06:31:01.215Z,23.50
2018-12-07T06:33:29.747Z,23.50
2018-12-07T06:35:58.223Z,23.60
2018-12-07T06:38:26.705Z,23.70
2018-12-07T06:40:55.078Z,23.80
2018-12-07T06:43:23.748Z,23.90
2018-12-07T06:45:52.118Z,24.10
2018-12-07T06:48:20.623Z,24.20
2018-12-07T06:50:49.004Z,24.30
2018-12-07T06:53:17.382Z,24.30
2018-12-07T06:55:45.755Z,24.40
2018-12-07T06:58:14.243Z,24.40
2018-12-07T07:00:42.615Z,24.40
2018-12-07T07:03:11.205Z,24.40
2018-12-07T07:05:39.586Z,24.40
2018-12-07T07:08:08.175Z,24.40
2018-12-07T07:10:36.649Z,24.40
2018-12-07T07:13:05.015Z,24.40
2018-12-07T07:15:33.384Z,24.40
2018-12-07T07:18:01.765Z,24.40
2018-12-07T07:20:30.228Z,24.50
2018-12-07T07:22:59.422Z,24.50
2018-12-07T07:25:27.942Z,24.60
2018-12-07T07:27:56.513Z,24.60
2018-12-07T07:30:24.984Z,24.60
2018-12-07T07:32:53.355Z,24.60
2018-12-07T07:35:21.749Z,24.60
2018-12-07T07:37:50.111Z,24.60
2018-12-07T07:40:18.483Z,24.60
2018-12-07T07:42:46.856Z,24.60
2018-12-07T07:45:15.468Z,24.60
2018-12-07T07:47:43.866Z,24.60
2018-12-07T07:50:12.249Z,24.60
2018-12-07T07:52:40.628Z,24.60
2018-12-07T07:55:10.009Z,24.60
2018-12-07T07:57:38.675Z,24.70
2018-12-07T08:00:07.685Z,24.70
2018-12-07T08:02:36.129Z,24.70
2018-12-07T08:05:05.054Z,24.70
2018-12-07T08:07:33.738Z,24.70
2018-12-07T08:10:02.221Z,24.70
2018-12-07T08:12:30.593Z,24.60
2018-12-07T08:14:58.981Z,24.60
2018-12-07T08:17:28.167Z,24.70
2018-12-07T08:19:56.533Z,24.70
2018-12-07T08:22:24.899Z,24.70
2018-12-07T08:24:53.275Z,24.70
2018-12-07T08:27:21.830Z,24.70
2018-12-07T08:29:50.294Z,24.80
2018-12-07T08:32:18.659Z,24.80
2018-12-07T08:34:47.109Z,24.80
2018-12-07T08:37:15.483Z,24.80
2018-12-07T08:39:43.856Z,24.80
2018-12-07T08:42:12.223Z,24.90
2018-12-07T08:44:40.657Z,24.90
2018-12-07T08:47:09.139Z,24.90
2018-12-07T08:49:43.233Z,24.90
2018-12-07T08:52:11.595Z,24.90
2018-12-07T08:54:40.108Z,24.80
2018-12-07T08:57:08.680Z,24.80
2018-12-07T08:59:37.047Z,24.80
2018-12-07T09:02:05.425Z,24.80
2018-12-07T09:04:33.806Z,24.90
2018-12-07T09:07:02.192Z,24.90
2018-12-07T09:09:30.571Z,25.00
2018-12-07T09:11:59.155Z,25.00
2018-12-07T09:14:27.603Z,25.00
2018-12-07T09:16:56.122Z,25.00
2018-12-07T09:19:24.674Z,25.00
2018-12-07T09:21:53.401Z,25.00
2018-12-07T09:24:21.772Z,25.00
2018-12-07T09:26:50.414Z,25.00
2018-12-07T09:29:18.792Z,25.00
2018-12-07T09:31:47.180Z,25.00
2018-12-07T09:34:15.586Z,25.00
2018-12-07T09:36:44.167Z,25.00
2018-12-07T09:39:12.536Z,24.90
2018-12-07T09:41:41.441Z,25.00
2018-12-07T09:44:10.033Z,25.00
2018-12-07T09:46:38.411Z,25.10
2018-12-07T09:49:06.987Z,25.10
2018-12-07T09:51:35.468Z,25.10
2018-12-07T09:54:03.843Z,25.10
2018-12-07T09:56:32.394Z,25.10
2018-12-07T09:59:00.781Z,25.10
2018-12-07T10:01:29.245Z,25.10
2018-12-07T10:03:57.666Z,25.10
2018-12-07T10:06:26.041Z,25.10
2018-12-07T10:08:54.623Z,25.10
2018-12-07T10:11:23.118Z,25.10
2018-12-07T10:13:51.721Z,25.00
2018-12-07T10:16:20.185Z,25.00
2018-12-07T10:18:48.563Z,23.70
2018-12-07T10:21:16.932Z,22.80
2018-12-07T10:23:45.305Z,22.50
2018-12-07T10:26:13.874Z,23.30
2018-12-07T10:28:43.190Z,24.10
2018-12-07T10:31:11.872Z,24.50
2018-12-07T10:33:40.236Z,24.70
2018-12-07T10:36:08.627Z,24.80
2018-12-07T10:38:37.113Z,24.90
2018-12-07T10:41:05.515Z,24.90
2018-12-07T10:43:33.974Z,25.00
2018-12-07T10:46:02.454Z,25.00
2018-12-07T10:48:31.039Z,24.90
2018-12-07T10:50:59.717Z,25.00
2018-12-07T10:53:28.205Z,25.00
2018-12-07T10:55:56.575Z,25.00
2018-12-07T10:58:25.147Z,25.10
2018-12-07T11:00:59.287Z,25.10
2018-12-07T11:03:33.497Z,25.10
2018-12-07T11:06:07.520Z,25.10
2018-12-07T11:08:41.628Z,25.20
2018-12-07T11:14:17.598Z,25.10
2018-12-07T11:16:51.783Z,25.10
2018-12-07T11:19:26.126Z,25.10
2018-12-07T11:22:01.802Z,25.10
2018-12-07T11:24:36.046Z,25.10
2018-12-07T11:27:11.202Z,25.10
2018-12-07T11:29:45.441Z,25.10
2018-12-07T11:32:17.206Z,25.20
2018-12-07T11:34:47.533Z,25.20
2018-12-07T11:37:15.889Z,25.20
2018-12-07T11:39:44.227Z,25.20
2018-12-07T11:42:12.554Z,25.30
2018-12-07T11:44:40.904Z,25.30
2018-12-07T11:47:09.250Z,25.30
2018-12-07T11:49:37.820Z,25.20
2018-12-07T11:52:06.252Z,25.20
2018-12-07T11:54:34.593Z,25.20
2018-12-07T11:57:02.995Z,25.20
2018-12-07T11:59:31.404Z,25.10
2018-12-07T12:01:59.750Z,25.10
2018-12-07T12:04:28.181Z,25.20
2018-12-07T12:06:56.781Z,25.20
2018-12-07T12:09:25.131Z,25.30
2018-12-07T12:11:53.475Z,25.30
2018-12-07T12:14:21.811Z,25.30
2018-12-07T12:16:50.169Z,25.30
2018-12-07T12:19:18.511Z,25.30
2018-12-07T12:21:46.864Z,25.30
2018-12-07T12:24:15.603Z,25.40
2018-12-07T12:26:43.943Z,25.30
2018-12-07T12:29:12.289Z,25.20
2018-12-07T12:31:41.439Z,25.00
2018-12-07T12:34:09.787Z,25.00
2018-12-07T13:05:44.668Z,25.30
2018-12-07T13:08:13.390Z,25.30
2018-12-07T13:10:41.804Z,25.20
2018-12-07T13:13:10.293Z,25.20
2018-12-07T13:15:42.880Z,24.00
2018-12-07T13:18:11.216Z,23.20
2018-12-07T13:20:39.564Z,23.10
2018-12-07T13:32:00.168Z,22.50
2018-12-07T13:34:28.672Z,22.30
2018-12-07T13:36:57.032Z,22.30
2018-12-07T13:39:25.407Z,22.30
2018-12-07T13:41:53.958Z,22.40
2018-12-07T13:44:22.572Z,22.40
2018-12-07T13:46:51.395Z,22.20
2018-12-07T13:49:20.077Z,22.30
2018-12-07T13:51:48.661Z,22.40
2018-12-07T13:54:17.232Z,22.70
2018-12-07T13:56:45.884Z,23.20
2018-12-07T13:59:14.437Z,22.60
2018-12-07T14:01:43.131Z,22.50
2018-12-07T14:04:11.702Z,22.20
2018-12-07T14:06:40.230Z,22.80
2018-12-07T14:09:09.014Z,23.60
2018-12-07T14:11:37.555Z,23.00
2018-12-07T14:14:06.001Z,23.50
2018-12-07T14:16:34.486Z,24.00
2018-12-07T14:19:02.818Z,24.20
2018-12-07T14:21:31.215Z,24.30
2018-12-07T14:23:59.708Z,24.40
2018-12-07T14:26:28.184Z,24.40
2018-12-07T14:28:56.803Z,24.50
2018-12-07T14:31:25.252Z,24.60
2018-12-07T14:33:53.808Z,24.70
2018-12-07T14:36:22.334Z,24.80
2018-12-07T14:38:51.217Z,24.90
2018-12-07T14:41:19.736Z,24.90
2018-12-07T14:43:48.335Z,25.00
2018-12-07T14:46:16.768Z,25.00
2018-12-07T14:48:45.451Z,25.00
2018-12-07T14:51:14.121Z,25.00
2018-12-07T14:53:42.729Z,25.00
2018-12-07T14:56:11.149Z,25.00
2018-12-07T14:58:39.692Z,25.00
2018-12-07T15:01:08.150Z,24.90
2018-12-07T15:03:36.785Z,25.00
2018-12-07T15:06:05.324Z,25.00
2018-12-07T15:08:33.955Z,25.00
2018-12-07T15:11:02.774Z,25.10
2018-12-07T15:13:31.449Z,25.20
2018-12-07T15:16:00.261Z,25.20
2018-12-07T15:18:28.938Z,25.20
2018-12-07T15:20:57.447Z,25.20
2018-12-07T15:23:26.014Z,25.20
2018-12-07T15:25:56.101Z,25.20
2018-12-07T15:28:24.688Z,25.20
2018-12-07T15:30:53.236Z,25.20
2018-12-07T15:33:21.603Z,25.10
2018-12-07T15:35:50.104Z,25.10
2018-12-07T15:38:18.697Z,25.10
2018-12-07T15:40:47.465Z,25.20
2018-12-07T15:43:15.994Z,25.20
2018-12-07T15:45:44.689Z,25.30
2018-12-07T15:48:13.147Z,25.30
2018-12-07T15:50:41.795Z,25.30
2018-12-07T15:53:10.280Z,25.30
2018-12-07T15:55:38.820Z,25.30
2018-12-07T15:58:07.707Z,25.30
2018-12-07T16:00:36.482Z,25.30
2018-12-07T16:03:05.208Z,25.30
2018-12-07T16:05:33.902Z,25.30
2018-12-07T16:08:02.453Z,25.20
2018-12-07T16:10:30.986Z,25.20
2018-12-07T16:12:59.671Z,25.30
2018-12-07T16:15:28.476Z,25.30
2018-12-07T16:17:57.033Z,25.30
2018-12-07T16:20:25.358Z,25.30
2018-12-07T16:22:53.951Z,25.40
2018-12-07T16:25:22.701Z,25.40
2018-12-07T16:27:51.457Z,25.40
2018-12-07T16:30:20.089Z,25.40
2018-12-07T16:32:48.561Z,25.40
2018-12-07T16:35:17.014Z,25.40
2018-12-07T16:37:45.942Z,25.40
2018-12-07T16:40:14.719Z,25.40
2018-12-07T16:42:43.347Z,25.40
2018-12-07T16:45:11.819Z,25.30
2018-12-07T16:47:40.536Z,25.30
2018-12-07T16:50:09.215Z,25.30
2018-12-07T16:52:38.004Z,25.40
2018-12-07T16:55:06.736Z,25.40
2018-12-07T16:57:35.511Z,25.40
2018-12-07T17:00:06.131Z,25.50
2018-12-07T17:02:34.814Z,25.50
2018-12-07T17:05:03.690Z,25.50
2018-12-07T17:07:33.457Z,25.50
2018-12-07T17:10:02.519Z,25.50
2018-12-07T17:12:31.381Z,25.40
2018-12-07T17:14:59.855Z,25.40
2018-12-07T17:17:28.539Z,25.40
2018-12-07T17:19:57.299Z,25.40
2018-12-07T17:22:25.821Z,25.10
2018-12-07T17:24:54.213Z,25.30
2018-12-07T17:27:23.781Z,25.10
2018-12-07T17:29:52.473Z,25.20
2018-12-07T17:32:21.352Z,25.30
2018-12-07T17:34:50.365Z,25.40
2018-12-07T17:37:19.301Z,25.40
2018-12-07T17:39:48.390Z,25.40
2018-12-07T17:42:17.074Z,25.40
2018-12-07T17:44:46.257Z,25.40
2018-12-07T17:47:15.005Z,25.40
2018-12-07T17:49:43.593Z,24.40
2018-12-07T17:52:12.047Z,23.80
2018-12-07T17:54:40.509Z,23.50
2018-12-07T17:57:09.308Z,23.30
2018-12-07T17:59:37.742Z,23.20
2018-12-07T18:02:06.488Z,23.20
2018-12-07T18:04:34.953Z,23.10
2018-12-07T18:07:03.392Z,23.10
2018-12-07T18:09:32.072Z,23.00
2018-12-07T18:12:00.893Z,23.00
2018-12-07T18:14:29.452Z,23.00
2018-12-07T18:16:58.073Z,22.90
2018-12-07T18:19:26.747Z,22.90
2018-12-07T18:21:55.353Z,22.80
2018-12-07T18:24:24.056Z,22.80
2018-12-07T18:26:52.747Z,22.80
2018-12-07T18:29:21.405Z,22.70
2018-12-07T18:31:50.180Z,22.70
2018-12-07T18:34:19.627Z,22.70
2018-12-07T18:36:49.138Z,22.70
2018-12-07T18:39:17.943Z,22.70
2018-12-07T18:41:46.575Z,22.70
2018-12-07T18:44:15.621Z,22.70
2018-12-07T18:46:44.482Z,22.70
2018-12-07T18:49:13.139Z,22.70
2018-12-07T18:51:42.002Z,22.70
2018-12-07T18:54:10.755Z,22.60
2018-12-07T18:56:39.262Z,22.60
2018-12-07T18:59:07.813Z,22.60
2018-12-07T19:01:36.455Z,22.60
2018-12-07T19:04:04.942Z,22.60
2018-12-07T19:06:33.554Z,22.50
2018-12-07T19:09:02.434Z,22.50
2018-12-07T19:11:31.124Z,22.50
2018-12-07T19:13:59.812Z,22.50
2018-12-07T19:16:28.473Z,22.50
2018-12-07T19:18:57.439Z,22.60
2018-12-07T19:21:26.860Z,22.60
2018-12-07T19:23:55.674Z,22.60
2018-12-07T19:26:24.428Z,22.60
2018-12-07T19:28:53.097Z,22.60
2018-12-07T19:31:22.658Z,22.60
2018-12-07T19:33:51.442Z,22.50
2018-12-07T19:36:21.030Z,22.50
2018-12-07T19:38:50.281Z,22.40
2018-12-07T19:41:18.926Z,22.40
2018-12-07T19:43:47.560Z,22.40
2018-12-07T19:46:16.944Z,22.40
2018-12-07T19:48:46.061Z,22.40
2018-12-07T19:51:15.078Z,22.40
2018-12-07T19:53:43.827Z,22.40
2018-12-07T19:56:12.356Z,22.40
2018-12-07T19:58:40.717Z,22.40
2018-12-07T20:01:10.696Z,22.40
2018-12-07T20:03:39.503Z,22.40
2018-12-07T20:06:08.753Z,22.40
2018-12-07T20:08:37.340Z,22.40
2018-12-07T20:11:06.048Z,22.40
2018-12-07T20:13:34.788Z,22.30
2018-12-07T20:16:03.767Z,22.30
2018-12-07T20:18:32.493Z,22.30
2018-12-07T20:21:01.138Z,22.30
2018-12-07T20:23:30.473Z,22.30
2018-12-07T20:26:00.192Z,22.30
2018-12-07T20:28:29.246Z,22.30
2018-12-07T20:30:58.276Z,22.30
2018-12-07T20:33:26.925Z,22.30
2018-12-07T20:35:55.475Z,22.30
2018-12-07T20:38:23.964Z,22.30
2018-12-07T20:40:54.201Z,22.30
2018-12-07T20:43:22.616Z,22.30
2018-12-07T20:45:51.726Z,22.30
2018-12-07T20:48:21.060Z,22.30
2018-12-07T20:50:49.920Z,22.30
2018-12-07T20:53:19.071Z,22.20
2018-12-07T20:55:47.692Z,22.20
2018-12-07T20:58:16.320Z,22.20
2018-12-07T21:00:44.887Z,22.20
2018-12-07T21:03:13.295Z,22.30
2018-12-07T21:09:20.158Z,22.30
2018-12-07T21:11:51.826Z,22.30
2018-12-07T21:14:22.516Z,22.30
2018-12-07T21:17:10.722Z,22.30
2018-12-07T21:19:43.520Z,22.30
2018-12-07T21:22:12.802Z,22.30
2018-12-07T21:24:41.370Z,22.30
2018-12-07T21:27:09.870Z,22.20
2018-12-07T21:29:38.610Z,22.20
2018-12-07T21:32:10.619Z,22.20
2018-12-07T21:37:35.612Z,22.10
2018-12-07T21:40:09.011Z,22.10
2018-12-07T21:42:37.459Z,22.00
2018-12-07T21:45:06.658Z,22.00
2018-12-07T21:48:21.011Z,22.00
2018-12-07T21:50:55.416Z,22.00
2018-12-07T21:53:24.015Z,22.00
2018-12-07T21:55:52.669Z,22.00
2018-12-07T21:58:21.223Z,22.00
2018-12-07T22:00:49.898Z,22.00
2018-12-07T22:03:18.579Z,22.00
2018-12-07T22:05:47.359Z,22.00
2018-12-07T22:08:15.968Z,22.00
2018-12-07T22:10:44.546Z,22.00
2018-12-07T22:13:13.445Z,22.00
2018-12-07T22:15:41.975Z,22.00
2018-12-07T22:18:10.404Z,22.00
2018-12-07T22:20:38.916Z,22.00
2018-12-07T22:23:07.752Z,22.00
2018-12-07T22:25:36.342Z,22.00
2018-12-07T22:28:04.700Z,22.00
2018-12-07T22:30:33.205Z,22.00
2018-12-07T22:33:01.702Z,22.00
2018-12-07T22:35:30.494Z,22.00
2018-12-07T22:37:59.177Z,22.00
2018-12-07T22:40:27.815Z,22.00
2018-12-07T22:42:56.575Z,22.00
2018-12-07T22:45:25.205Z,22.00
2018-12-07T22:47:53.809Z,21.90
2018-12-07T22:50:22.237Z,21.90
2018-12-07T22:52:50.576Z,21.90
2018-12-07T22:55:19.001Z,21.90
2018-12-07T22:57:47.406Z,21.90
2018-12-07T23:00:18.139Z,21.90
2018-12-07T23:02:46.521Z,21.90
2018-12-07T23:05:14.883Z,22.00
2018-12-07T23:07:43.239Z,22.00
2018-12-07T23:10:11.582Z,22.00
2018-12-07T23:12:39.908Z,22.00
2018-12-07T23:15:09.222Z,22.00
2018-12-07T23:17:37.563Z,21.90
2018-12-07T23:20:06.180Z,22.00
2018-12-07T23:22:34.533Z,21.90
2018-12-07T23:25:02.881Z,21.90
2018-12-07T23:27:31.233Z,21.90
2018-12-07T23:29:59.660Z,21.90
2018-12-07T23:32:27.998Z,21.90
2018-12-07T23:34:56.491Z,21.90
2018-12-07T23:37:25.043Z,21.90
2018-12-07T23:39:53.390Z,21.90
2018-12-07T23:42:21.723Z,22.00
2018-12-07T23:44:50.083Z,21.90
2018-12-07T23:47:18.500Z,22.00
2018-12-07T23:49:46.840Z,21.90
2018-12-07T23:52:15.188Z,21.90
2018-12-07T23:54:43.527Z,21.90
2018-12-07T23:57:11.873Z,21.90
2018-12-07T23:59:40.300Z,21.90
